createdAt,value
2023-03-05T00:02:14.010Z,22.37
2023-03-05T00:04:41.621Z,22.39
2023-03-05T00:07:10.599Z,22.40
2023-03-05T00:09:38.450Z,22.39
2023-03-05T00:12:07.087Z,22.40
2023-03-05T00:14:34.589Z,22.37
2023-03-05T00:17:02.106Z,22.36
2023-03-05T00:19:29.652Z,22.38
2023-03-05T00:21:57.405Z,22.36
2023-03-05T00:24:26.385Z,22.35
2023-03-05T00:26:54.009Z,22.37
2023-03-05T00:29:21.643Z,22.38
2023-03-05T00:31:49.343Z,22.38
2023-03-05T00:34:18.993Z,22.39
2023-03-05T00:36:48.813Z,22.38
2023-03-05T00:39:18.604Z,22.38
2023-03-05T00:41:47.638Z,22.39
2023-03-05T00:44:15.217Z,22.38
2023-03-05T00:46:43.078Z,22.39
2023-03-05T00:49:10.644Z,22.39
2023-03-05T00:51:38.211Z,22.38
2023-03-05T00:54:06.582Z,22.40
2023-03-05T00:56:34.238Z,22.41
2023-03-05T00:59:03.472Z,22.41
2023-03-05T01:01:31.151Z,22.42
2023-03-05T01:03:58.919Z,22.40
2023-03-05T01:06:27.064Z,22.42
2023-03-05T01:08:55.081Z,22.41
2023-03-05T01:11:23.000Z,22.41
2023-03-05T01:13:50.502Z,22.42
2023-03-05T01:16:19.601Z,22.42
2023-03-05T01:18:47.219Z,22.41
2023-03-05T01:21:14.946Z,22.41
2023-03-05T01:23:42.682Z,22.41
2023-03-05T01:26:10.304Z,22.40
2023-03-05T01:28:38.639Z,22.41
2023-03-05T01:31:09.678Z,22.40
2023-03-05T01:33:39.068Z,22.42
2023-03-05T01:36:11.519Z,22.41
2023-03-05T01:38:39.130Z,22.41
2023-03-05T01:41:06.744Z,22.41
2023-03-05T01:43:34.825Z,22.38
2023-03-05T01:46:30.587Z,22.40
2023-03-05T01:49:14.092Z,22.39
2023-03-05T01:51:48.890Z,22.41
2023-03-05T01:54:19.700Z,22.41
2023-03-05T01:56:50.118Z,22.42
2023-03-05T01:59:18.492Z,22.40
2023-03-05T02:01:52.377Z,22.41
2023-03-05T02:04:24.224Z,22.41
2023-03-05T02:06:51.979Z,22.42
2023-03-05T02:09:20.710Z,22.42
2023-03-05T02:11:48.248Z,22.42
2023-03-05T02:14:16.092Z,22.42
2023-03-05T02:16:44.181Z,22.42
2023-03-05T02:19:12.870Z,22.40
2023-03-05T02:21:44.318Z,22.41
2023-03-05T02:24:13.388Z,22.44
2023-03-05T02:26:42.097Z,22.41
2023-03-05T02:29:13.325Z,22.43
2023-03-05T02:31:42.317Z,22.43
2023-03-05T02:34:10.058Z,22.42
2023-03-05T02:36:37.779Z,22.42
2023-03-05T02:39:07.485Z,22.40
2023-03-05T02:41:35.086Z,22.42
2023-03-05T02:44:02.833Z,22.39
2023-03-05T02:46:30.423Z,22.42
2023-03-05T02:48:57.989Z,22.41
2023-03-05T02:51:25.604Z,22.40
2023-03-05T02:53:53.971Z,22.40
2023-03-05T02:56:24.780Z,22.37
2023-03-05T02:58:54.089Z,22.36
2023-03-05T03:01:21.716Z,22.36
2023-03-05T03:03:49.373Z,22.35
2023-03-05T03:06:16.972Z,22.34
2023-03-05T03:08:44.517Z,22.34
2023-03-05T03:11:12.516Z,22.32
2023-03-05T03:13:41.949Z,22.34
2023-03-05T03:16:11.640Z,22.35
2023-03-05T03:18:38.785Z,22.38
2023-03-05T03:21:07.385Z,22.37
2023-03-05T03:23:35.417Z,22.35
2023-03-05T03:26:03.286Z,22.35
2023-03-05T03:28:30.787Z,22.39
2023-03-05T03:30:59.922Z,22.40
2023-03-05T03:33:27.516Z,22.39
2023-03-05T03:35:55.116Z,22.39
2023-03-05T03:38:22.746Z,22.38
2023-03-05T03:40:50.342Z,22.15
2023-03-05T03:43:18.040Z,22.25
2023-03-05T03:45:45.960Z,22.33
2023-03-05T03:48:14.960Z,22.38
2023-03-05T03:50:43.423Z,22.39
2023-03-05T03:53:11.066Z,22.41
2023-03-05T03:55:38.669Z,22.41
2023-03-05T03:58:07.077Z,22.44
2023-03-05T04:00:34.713Z,22.44
2023-03-05T04:03:02.486Z,22.44
2023-03-05T04:05:31.664Z,22.41
2023-03-05T04:07:59.146Z,22.45
2023-03-05T04:10:27.311Z,22.45
2023-03-05T04:12:54.950Z,22.46
2023-03-05T04:15:22.656Z,22.48
2023-03-05T04:17:50.226Z,22.47
2023-03-05T04:20:18.200Z,22.49
2023-03-05T04:22:47.251Z,22.49
2023-03-05T04:25:14.977Z,22.48
2023-03-05T04:27:42.603Z,22.50
2023-03-05T04:30:14.086Z,22.48
2023-03-05T04:32:41.925Z,22.48
2023-03-05T04:35:09.969Z,22.50
2023-03-05T04:37:37.742Z,22.51
2023-03-05T04:40:08.955Z,22.49
2023-03-05T04:42:36.462Z,22.50
2023-03-05T04:45:04.714Z,22.52
2023-03-05T04:47:32.447Z,22.49
2023-03-05T04:50:00.176Z,22.48
2023-03-05T04:52:27.821Z,22.49
2023-03-05T04:54:55.396Z,22.50
2023-03-05T04:57:24.414Z,22.50
2023-03-05T04:59:52.002Z,22.47
2023-03-05T05:02:19.505Z,22.42
2023-03-05T05:04:47.141Z,22.46
2023-03-05T05:07:15.323Z,22.45
2023-03-05T05:09:42.906Z,22.44
2023-03-05T05:12:10.735Z,22.45
2023-03-05T05:14:39.806Z,22.47
2023-03-05T05:17:07.438Z,22.47
2023-03-05T05:19:35.934Z,22.46
2023-03-05T05:22:03.569Z,22.43
2023-03-05T05:24:31.097Z,22.44
2023-03-05T05:26:59.364Z,22.43
2023-03-05T05:29:27.508Z,22.47
2023-03-05T05:31:57.261Z,22.46
2023-03-05T05:34:24.925Z,22.45
2023-03-05T05:36:52.558Z,22.49
2023-03-05T05:39:20.578Z,22.48
2023-03-05T05:41:51.190Z,22.48
2023-03-05T05:44:19.787Z,22.47
2023-03-05T05:46:47.418Z,22.48
2023-03-05T05:49:16.730Z,22.48
2023-03-05T05:51:44.451Z,22.51
2023-03-05T05:54:13.656Z,22.52
2023-03-05T05:56:41.540Z,22.52
2023-03-05T05:59:10.524Z,22.51
2023-03-05T06:01:38.951Z,22.51
2023-03-05T06:04:06.575Z,22.51
2023-03-05T06:06:35.730Z,22.50
2023-03-05T06:09:03.636Z,22.47
2023-03-05T06:11:31.187Z,22.49
2023-03-05T06:13:58.772Z,22.52
2023-03-05T06:16:26.410Z,22.53
2023-03-05T06:18:55.123Z,22.51
2023-03-05T06:21:23.327Z,22.51
2023-03-05T06:23:52.644Z,22.53
2023-03-05T06:26:22.041Z,22.51
2023-03-05T06:28:49.772Z,22.51
2023-03-05T06:31:19.494Z,22.52
2023-03-05T06:33:46.751Z,22.54
2023-03-05T06:36:16.527Z,22.53
2023-03-05T06:38:43.950Z,22.49
2023-03-05T06:41:14.903Z,22.52
2023-03-05T06:43:44.456Z,22.52
2023-03-05T06:46:14.386Z,22.51
2023-03-05T06:48:42.147Z,22.53
2023-03-05T06:51:14.339Z,22.52
2023-03-05T06:53:42.143Z,22.52
2023-03-05T06:56:09.801Z,22.53
2023-03-05T06:58:38.785Z,22.52
2023-03-05T07:01:07.160Z,22.52
2023-03-05T07:03:35.159Z,22.52
2023-03-05T07:06:04.424Z,22.53
2023-03-05T07:08:32.074Z,22.54
2023-03-05T07:11:00.861Z,22.53
2023-03-05T07:13:28.965Z,22.53
2023-03-05T07:15:57.992Z,22.52
2023-03-05T07:18:25.593Z,22.54
2023-03-05T07:20:53.452Z,22.55
2023-03-05T07:23:21.030Z,22.54
2023-03-05T07:25:48.632Z,22.53
2023-03-05T07:28:16.190Z,22.52
2023-03-05T07:30:43.928Z,22.53
2023-03-05T07:33:13.162Z,22.54
2023-03-05T07:35:41.427Z,22.54
2023-03-05T07:38:09.186Z,22.57
2023-03-05T07:40:36.737Z,22.43
2023-03-05T07:43:04.262Z,22.34
2023-03-05T07:45:35.574Z,22.36
2023-03-05T07:48:03.192Z,22.45
2023-03-05T07:50:32.345Z,22.49
2023-03-05T07:53:00.464Z,22.50
2023-03-05T07:55:28.094Z,22.53
2023-03-05T07:57:55.606Z,22.55
2023-03-05T08:00:23.159Z,22.56
2023-03-05T08:02:50.782Z,22.55
2023-03-05T08:05:18.628Z,22.57
2023-03-05T08:07:47.677Z,22.57
2023-03-05T08:10:15.225Z,22.56
2023-03-05T08:12:42.791Z,22.54
2023-03-05T08:15:11.390Z,22.56
2023-03-05T08:17:38.904Z,22.55
2023-03-05T08:20:07.973Z,22.57
2023-03-05T08:22:35.659Z,22.55
2023-03-05T08:25:08.690Z,22.56
2023-03-05T08:27:39.392Z,22.55
2023-03-05T08:30:08.506Z,22.54
2023-03-05T08:32:36.081Z,22.54
2023-03-05T08:35:03.814Z,22.54
2023-03-05T08:37:31.444Z,22.57
2023-03-05T08:39:59.660Z,22.56
2023-03-05T08:42:28.669Z,22.61
2023-03-05T08:44:56.400Z,22.55
2023-03-05T08:47:24.619Z,22.55
2023-03-05T08:49:52.323Z,22.56
2023-03-05T08:52:19.984Z,22.56
2023-03-05T08:54:47.623Z,22.55
2023-03-05T08:57:15.272Z,22.56
2023-03-05T08:59:44.252Z,22.57
2023-03-05T09:02:13.573Z,22.56
2023-03-05T09:04:41.204Z,22.58
2023-03-05T09:07:08.732Z,22.57
2023-03-05T09:09:37.614Z,22.57
2023-03-05T09:12:05.652Z,22.55
2023-03-05T09:14:33.962Z,22.56
2023-03-05T09:17:03.325Z,22.55
2023-03-05T09:19:30.937Z,22.56
2023-03-05T09:21:58.634Z,22.57
2023-03-05T09:24:26.426Z,22.60
2023-03-05T09:26:54.040Z,22.60
2023-03-05T09:29:21.678Z,22.59
2023-03-05T09:31:51.611Z,22.58
2023-03-05T09:34:20.881Z,22.61
2023-03-05T09:36:48.700Z,22.58
2023-03-05T09:39:16.373Z,22.62
2023-03-05T09:42:04.675Z,22.63
2023-03-05T09:44:40.929Z,22.64
2023-03-05T09:47:24.828Z,22.65
2023-03-05T09:49:59.666Z,22.62
2023-03-05T09:52:37.349Z,22.62
2023-03-05T09:55:12.989Z,22.63
2023-03-05T09:57:44.950Z,22.68
2023-03-05T10:00:27.403Z,22.78
2023-03-05T10:02:59.802Z,22.68
2023-03-05T10:05:36.642Z,22.65
2023-03-05T10:08:05.454Z,22.63
2023-03-05T10:10:40.673Z,22.63
2023-03-05T10:13:16.848Z,22.65
2023-03-05T10:15:56.183Z,22.66
2023-03-05T10:18:32.623Z,22.66
2023-03-05T10:21:05.553Z,22.65
2023-03-05T10:23:56.601Z,22.65
2023-03-05T10:26:35.721Z,22.65
2023-03-05T10:29:16.396Z,22.67
2023-03-05T10:32:00.419Z,22.66
2023-03-05T10:34:53.445Z,22.62
2023-03-05T10:37:46.668Z,22.66
2023-03-05T10:40:21.315Z,22.67
2023-03-05T10:42:56.814Z,22.63
2023-03-05T10:45:29.835Z,22.64
2023-03-05T10:48:02.724Z,22.65
2023-03-05T10:50:37.973Z,22.65
2023-03-05T10:53:17.348Z,22.66
2023-03-05T10:55:45.125Z,22.64
2023-03-05T10:58:13.722Z,22.67
2023-03-05T11:00:57.650Z,22.66
2023-03-05T11:03:25.245Z,22.66
2023-03-05T11:06:00.441Z,22.63
2023-03-05T11:08:32.161Z,22.68
2023-03-05T11:11:15.054Z,22.66
2023-03-05T11:13:52.687Z,22.66
2023-03-05T11:16:22.889Z,22.67
2023-03-05T11:18:50.971Z,22.68
2023-03-05T11:21:23.760Z,22.69
2023-03-05T11:24:10.485Z,22.68
2023-03-05T11:26:38.096Z,22.67
2023-03-05T11:29:18.111Z,22.67
2023-03-05T11:31:45.732Z,22.67
2023-03-05T11:34:25.064Z,22.69
2023-03-05T11:37:02.593Z,22.69
2023-03-05T11:39:32.444Z,22.69
2023-03-05T11:42:03.782Z,22.68
2023-03-05T11:44:35.296Z,22.67
2023-03-05T11:47:17.147Z,22.67
2023-03-05T11:49:48.099Z,22.69
2023-03-05T11:52:20.860Z,22.68
2023-03-05T11:54:56.505Z,22.68
2023-03-05T11:57:25.580Z,22.68
2023-03-05T11:59:55.887Z,22.68
2023-03-05T12:02:26.115Z,22.69
2023-03-05T12:04:54.049Z,22.68
2023-03-05T12:07:28.449Z,22.68
2023-03-05T12:09:57.668Z,22.68
2023-03-05T12:12:42.127Z,22.67
2023-03-05T12:15:29.839Z,22.68
2023-03-05T12:18:05.807Z,22.68
2023-03-05T12:20:42.808Z,22.69
2023-03-05T12:23:14.546Z,22.68
2023-03-05T12:25:49.058Z,22.69
2023-03-05T12:28:38.262Z,22.68
2023-03-05T12:31:06.616Z,22.68
2023-03-05T12:33:36.850Z,22.67
2023-03-05T12:36:36.359Z,22.70
2023-03-05T12:39:46.711Z,22.70
2023-03-05T12:42:50.658Z,22.68
2023-03-05T12:45:28.781Z,22.67
2023-03-05T12:48:33.054Z,22.68
2023-03-05T12:51:00.695Z,22.71
2023-03-05T12:53:28.505Z,22.68
2023-03-05T12:56:01.291Z,22.69
2023-03-05T12:58:38.036Z,22.70
2023-03-05T13:01:20.292Z,22.71
2023-03-05T13:03:53.188Z,22.69
2023-03-05T13:06:27.048Z,22.69
2023-03-05T13:09:00.363Z,22.69
2023-03-05T13:11:30.501Z,22.70
2023-03-05T13:13:58.708Z,22.71
2023-03-05T13:16:29.831Z,22.72
2023-03-05T13:19:00.099Z,22.71
2023-03-05T13:21:29.252Z,22.71
2023-03-05T13:23:58.239Z,22.71
2023-03-05T13:26:27.678Z,22.68
2023-03-05T13:29:07.312Z,22.71
2023-03-05T13:31:37.001Z,22.69
2023-03-05T13:34:10.822Z,22.66
2023-03-05T13:36:40.143Z,22.67
2023-03-05T13:39:08.037Z,22.69
2023-03-05T13:41:35.620Z,22.69
2023-03-05T13:44:03.586Z,22.70
2023-03-05T13:46:32.935Z,22.68
2023-03-05T13:49:21.915Z,22.69
2023-03-05T13:51:51.295Z,22.69
2023-03-05T13:54:19.717Z,22.70
2023-03-05T13:56:55.186Z,22.68
2023-03-05T13:59:25.311Z,22.69
2023-03-05T14:01:53.393Z,22.69
2023-03-05T14:04:25.358Z,22.69
2023-03-05T14:06:58.075Z,22.71
2023-03-05T14:09:26.839Z,22.70
2023-03-05T14:12:01.377Z,22.71
2023-03-05T14:14:31.406Z,22.73
2023-03-05T14:17:32.726Z,22.72
2023-03-05T14:20:27.820Z,22.73
2023-03-05T14:22:56.799Z,22.71
2023-03-05T14:25:32.972Z,22.72
2023-03-05T14:28:01.100Z,22.71
2023-03-05T14:30:29.186Z,22.74
2023-03-05T14:32:58.434Z,22.72
2023-03-05T14:35:29.151Z,22.75
2023-03-05T14:37:58.583Z,22.77
2023-03-05T14:40:30.557Z,22.75
2023-03-05T14:42:59.702Z,22.76
2023-03-05T14:45:29.448Z,22.75
2023-03-05T14:48:00.421Z,22.73
2023-03-05T14:50:32.451Z,22.73
2023-03-05T14:53:02.721Z,22.73
2023-03-05T14:55:32.093Z,22.71
2023-03-05T14:58:03.330Z,22.70
2023-03-05T15:00:31.284Z,22.72
2023-03-05T15:02:59.043Z,22.70
2023-03-05T15:05:26.798Z,22.68
2023-03-05T15:07:55.998Z,22.68
2023-03-05T15:10:25.424Z,22.67
2023-03-05T15:12:52.982Z,22.67
2023-03-05T15:15:22.137Z,22.70
2023-03-05T15:17:51.194Z,22.67
2023-03-05T15:20:20.554Z,22.67
2023-03-05T15:22:48.398Z,22.65
2023-03-05T15:25:17.602Z,22.63
2023-03-05T15:27:45.769Z,22.66
2023-03-05T15:30:21.042Z,22.64
2023-03-05T15:32:48.801Z,22.66
2023-03-05T15:35:16.472Z,22.67
2023-03-05T15:37:44.058Z,22.66
2023-03-05T15:40:13.251Z,22.66
2023-03-05T15:42:42.300Z,22.31
2023-03-05T15:45:10.921Z,22.16
2023-03-05T15:47:38.561Z,22.44
2023-03-05T15:50:07.791Z,22.40
2023-03-05T15:52:35.326Z,22.51
2023-03-05T15:55:03.803Z,22.61
2023-03-05T15:57:33.836Z,22.59
2023-03-05T16:00:05.021Z,22.62
2023-03-05T16:02:38.073Z,22.62
2023-03-05T16:05:06.938Z,22.66
2023-03-05T16:07:37.418Z,22.66
2023-03-05T16:10:06.731Z,22.63
2023-03-05T16:12:38.492Z,22.64
2023-03-05T16:15:10.043Z,22.63
2023-03-05T16:17:39.048Z,22.64
2023-03-05T16:20:08.125Z,22.63
2023-03-05T16:22:35.844Z,22.64
2023-03-05T16:25:04.078Z,22.62
2023-03-05T16:27:32.235Z,22.65
2023-03-05T16:29:59.849Z,22.63
2023-03-05T16:32:28.989Z,22.63
2023-03-05T16:34:57.968Z,22.63
2023-03-05T16:37:26.155Z,22.65
2023-03-05T16:39:53.814Z,22.63
2023-03-05T16:42:21.429Z,22.61
2023-03-05T16:44:49.089Z,22.60
2023-03-05T16:47:17.101Z,22.59
2023-03-05T16:49:46.154Z,22.55
2023-03-05T16:52:19.236Z,22.53
2023-03-05T16:54:48.122Z,22.53
2023-03-05T16:57:16.204Z,22.55
2023-03-05T16:59:43.929Z,22.58
2023-03-05T17:02:11.893Z,22.56
2023-03-05T17:04:39.446Z,22.57
2023-03-05T17:07:09.420Z,22.56
2023-03-05T17:09:37.565Z,22.56
2023-03-05T17:12:05.451Z,22.52
2023-03-05T17:14:33.186Z,22.50
2023-03-05T17:17:01.220Z,22.53
2023-03-05T17:19:28.889Z,22.52
2023-03-05T17:21:56.563Z,22.54
2023-03-05T17:24:25.679Z,22.56
2023-03-05T17:26:53.267Z,22.51
2023-03-05T17:29:20.918Z,22.55
2023-03-05T17:31:50.329Z,22.53
2023-03-05T17:34:20.313Z,22.51
2023-03-05T17:36:48.265Z,22.52
2023-03-05T17:39:15.791Z,22.53
2023-03-05T17:41:45.204Z,22.54
2023-03-05T17:44:13.560Z,22.54
2023-03-05T17:46:41.186Z,22.52
2023-03-05T17:49:08.945Z,22.51
2023-03-05T17:51:36.592Z,22.57
2023-03-05T17:54:04.333Z,22.57
2023-03-05T17:56:31.934Z,22.63
2023-03-05T17:59:01.100Z,22.63
2023-03-05T18:01:30.545Z,22.67
2023-03-05T18:03:58.217Z,22.66
2023-03-05T18:06:26.576Z,22.68
2023-03-05T18:08:54.183Z,22.71
2023-03-05T18:11:21.845Z,22.70
2023-03-05T18:13:49.524Z,22.73
2023-03-05T18:16:18.544Z,22.73
2023-03-05T18:18:48.222Z,22.73
2023-03-05T18:21:19.535Z,22.75
2023-03-05T18:23:47.235Z,22.76
2023-03-05T18:26:14.898Z,22.75
2023-03-05T18:28:42.434Z,22.76
2023-03-05T18:31:10.408Z,22.76
2023-03-05T18:33:39.494Z,22.75
2023-03-05T18:36:08.090Z,22.78
2023-03-05T18:38:35.623Z,22.77
2023-03-05T18:41:04.156Z,22.79
2023-03-05T18:43:31.823Z,22.79
2023-03-05T18:45:59.425Z,22.79
2023-03-05T18:48:27.188Z,22.79
2023-03-05T18:50:56.278Z,22.80
2023-03-05T18:53:24.282Z,22.77
2023-03-05T18:55:53.290Z,22.80
2023-03-05T18:58:20.844Z,22.79
2023-03-05T19:00:49.182Z,22.79
2023-03-05T19:03:17.008Z,22.80
2023-03-05T19:05:44.745Z,22.80
2023-03-05T19:08:13.821Z,22.83
2023-03-05T19:10:41.556Z,22.81
2023-03-05T19:13:09.083Z,22.82
2023-03-05T19:15:39.785Z,22.81
2023-03-05T19:18:07.422Z,22.83
2023-03-05T19:20:34.966Z,22.83
2023-03-05T19:23:03.488Z,22.83
2023-03-05T19:25:32.967Z,22.83
2023-03-05T19:28:00.876Z,22.81
2023-03-05T19:30:28.564Z,22.84
2023-03-05T19:32:56.191Z,22.84
2023-03-05T19:35:23.975Z,22.86
2023-03-05T19:37:51.706Z,22.84
2023-03-05T19:40:19.835Z,22.82
2023-03-05T19:42:48.849Z,22.86
2023-03-05T19:45:16.528Z,22.86
2023-03-05T19:47:44.041Z,22.85
2023-03-05T19:50:15.362Z,22.85
2023-03-05T19:52:42.950Z,22.87
2023-03-05T19:55:11.432Z,22.87
2023-03-05T19:57:38.909Z,22.86
2023-03-05T20:00:09.531Z,22.87
2023-03-05T20:02:37.069Z,22.88
2023-03-05T20:05:04.984Z,22.88
2023-03-05T20:07:33.068Z,22.89
2023-03-05T20:10:00.812Z,22.89
2023-03-05T20:12:28.357Z,22.88
2023-03-05T20:14:55.908Z,22.92
2023-03-05T20:17:24.852Z,22.90
2023-03-05T20:19:53.105Z,22.88
2023-03-05T20:22:20.738Z,22.88
2023-03-05T20:24:48.325Z,22.90
2023-03-05T20:27:15.904Z,22.91
2023-03-05T20:29:43.482Z,22.92
2023-03-05T20:32:11.146Z,22.92
2023-03-05T20:34:40.249Z,22.91
2023-03-05T20:37:07.842Z,22.92
2023-03-05T20:39:35.434Z,22.93
2023-03-05T20:42:03.492Z,22.93
2023-03-05T20:44:31.041Z,22.93
2023-03-05T20:46:58.631Z,22.93
2023-03-05T20:49:26.290Z,22.93
2023-03-05T20:51:55.697Z,22.94
2023-03-05T20:54:23.465Z,22.95
2023-03-05T20:56:51.046Z,22.95
2023-03-05T20:59:18.573Z,22.96
2023-03-05T21:01:46.119Z,22.95
2023-03-05T21:04:13.658Z,22.95
2023-03-05T21:06:41.193Z,22.94
2023-03-05T21:09:10.733Z,22.95
2023-03-05T21:11:38.347Z,22.93
2023-03-05T21:14:05.854Z,22.96
2023-03-05T21:16:33.490Z,22.90
2023-03-05T21:19:01.501Z,22.94
2023-03-05T21:21:29.063Z,22.94
2023-03-05T21:23:56.645Z,22.95
2023-03-05T21:26:25.598Z,22.95
2023-03-05T21:28:53.114Z,22.94
2023-03-05T21:31:22.203Z,22.94
2023-03-05T21:33:50.256Z,22.94
2023-03-05T21:36:18.948Z,22.94
2023-03-05T21:38:47.194Z,22.94
2023-03-05T21:41:15.486Z,22.94
2023-03-05T21:43:44.458Z,22.94
2023-03-05T21:46:12.028Z,22.94
2023-03-05T21:48:39.597Z,22.95
2023-03-05T21:51:08.708Z,22.95
2023-03-05T21:53:36.716Z,22.94
2023-03-05T21:56:05.600Z,22.94
2023-03-05T21:58:35.153Z,22.94
2023-03-05T22:01:04.409Z,22.96
2023-03-05T22:03:32.376Z,22.94
2023-03-05T22:06:00.000Z,22.97
2023-03-05T22:08:27.565Z,22.98
2023-03-05T22:10:55.042Z,23.00
2023-03-05T22:13:22.761Z,22.97
2023-03-05T22:15:52.779Z,22.99
2023-03-05T22:18:23.856Z,22.98
2023-03-05T22:20:52.406Z,22.96
2023-03-05T22:23:20.861Z,22.99
2023-03-05T22:25:56.347Z,22.98
2023-03-05T22:28:24.019Z,22.97
2023-03-05T22:30:52.100Z,22.99
2023-03-05T22:33:22.983Z,22.98
2023-03-05T22:35:51.477Z,22.98
2023-03-05T22:38:19.549Z,22.97
2023-03-05T22:40:48.569Z,22.96
2023-03-05T22:43:16.988Z,22.96
2023-03-05T22:45:44.631Z,22.96
2023-03-05T22:48:12.990Z,22.94
2023-03-05T22:50:43.339Z,22.94
2023-03-05T22:53:11.703Z,22.95
2023-03-05T22:55:39.694Z,22.95
2023-03-05T22:58:07.262Z,22.93
2023-03-05T23:00:34.960Z,22.95
2023-03-05T23:03:02.546Z,22.93
2023-03-05T23:05:30.140Z,22.94
2023-03-05T23:07:59.648Z,22.94
2023-03-05T23:10:27.870Z,22.96
2023-03-05T23:12:57.054Z,22.95
2023-03-05T23:15:26.660Z,22.95
2023-03-05T23:17:54.372Z,22.95
2023-03-05T23:20:24.027Z,22.95
2023-03-05T23:22:51.556Z,22.94
2023-03-05T23:25:20.828Z,22.95
2023-03-05T23:27:48.904Z,22.95
2023-03-05T23:30:18.013Z,22.95
2023-03-05T23:32:48.491Z,22.94
2023-03-05T23:35:18.394Z,22.94
2023-03-05T23:37:45.952Z,22.94
2023-03-05T23:40:16.818Z,22.96
2023-03-05T23:42:46.265Z,22.95
2023-03-05T23:45:16.250Z,22.94
2023-03-05T23:47:44.293Z,22.95
2023-03-05T23:50:14.543Z,22.95
2023-03-05T23:52:42.461Z,22.95
2023-03-05T23:55:15.220Z,22.95
2023-03-05T23:57:42.895Z,22.96
